Time;durP1;ratioP1;P1;durP2;ratioP2;P2;SDS_P1;SDS_P2;PMS_P1;PMS_P2;Temp;Humidity;BMP_temperature;BMP_pressure;BME280_temperature;BME280_humidity;BME280_pressure;Samples;Min_cycle;Max_cycle;Signal;HPM_P1;HPM_P2
2021/07/01 00:01:42;;;;;;;1.90;1.40;;;12.50;99.90;;;;;;5029943;28;20522;-60
2021/07/01 00:04:07;;;;;;;1.00;1.00;;;12.40;99.90;;;;;;5026063;28;20426;-60
2021/07/01 00:06:33;;;;;;;2.53;1.27;;;12.40;99.90;;;;;;5017313;28;20829;-60
2021/07/01 00:08:59;;;;;;;1.27;1.20;;;12.40;99.90;;;;;;5028747;28;20259;-59
2021/07/01 00:11:25;;;;;;;3.57;1.23;;;12.40;99.90;;;;;;5028112;28;20588;-59
2021/07/01 00:13:50;;;;;;;1.27;1.17;;;12.40;99.90;;;;;;5027288;28;20199;-59
2021/07/01 00:16:16;;;;;;;1.63;1.40;;;12.50;99.90;;;;;;5012120;28;20183;-60
2021/07/01 00:18:42;;;;;;;4.20;1.53;;;12.50;99.90;;;;;;5013705;28;20178;-60
2021/07/01 00:21:08;;;;;;;1.20;1.10;;;12.50;99.90;;;;;;5028270;28;20525;-61
2021/07/01 00:23:33;;;;;;;5.20;1.20;;;12.50;99.90;;;;;;5029493;28;20172;-60
2021/07/01 00:25:59;;;;;;;1.20;1.10;;;12.50;99.90;;;;;;5025410;28;20182;-60
2021/07/01 00:28:25;;;;;;;1.83;1.50;;;12.50;99.90;;;;;;5023255;28;20179;-59
2021/07/01 00:30:51;;;;;;;3.93;1.40;;;12.60;99.90;;;;;;5026159;28;20494;-59
2021/07/01 00:33:16;;;;;;;1.40;1.30;;;12.50;99.90;;;;;;5020998;28;20187;-59
2021/07/01 00:35:42;;;;;;;1.93;1.47;;;12.60;99.90;;;;;;5026598;28;20624;-59
2021/07/01 00:38:08;;;;;;;3.47;1.50;;;12.60;99.90;;;;;;5026911;28;20171;-59
2021/07/01 00:40:33;;;;;;;1.53;1.43;;;12.50;99.90;;;;;;5011491;28;20211;-60
2021/07/01 00:42:59;;;;;;;5.83;1.80;;;12.50;99.90;;;;;;5023327;28;20538;-60
2021/07/01 00:45:25;;;;;;;2.13;1.20;;;12.50;99.90;;;;;;5027039;28;20648;-61
2021/07/01 00:47:50;;;;;;;2.23;1.60;;;12.50;99.90;;;;;;5026474;28;20180;-60
2021/07/01 00:50:17;;;;;;;1.70;1.60;;;12.50;99.90;;;;;;5028068;28;20215;-60
2021/07/01 00:52:42;;;;;;;1.60;1.50;;;12.50;99.90;;;;;;5029045;28;20182;-59
2021/07/01 00:55:10;;;;;;;3.40;1.67;;;12.50;99.90;;;;;;5027359;28;20540;-59
2021/07/01 00:57:37;;;;;;;1.70;1.47;;;12.50;99.90;;;;;;5014914;28;20160;-60
2021/07/01 01:00:21;;;;;;;1.43;1.33;;;12.50;99.90;;;;;;5023767;28;20457;-59
2021/07/01 01:02:46;;;;;;;3.20;1.60;;;12.50;99.90;;;;;;5029800;28;20770;-59
2021/07/01 01:05:12;;;;;;;5.00;1.80;;;12.40;99.90;;;;;;5027755;28;20430;-60
2021/07/01 01:07:38;;;;;;;1.53;1.43;;;12.40;99.90;;;;;;5028040;28;20551;-60
2021/07/01 01:10:05;;;;;;;4.63;1.50;;;12.30;99.90;;;;;;5027769;28;20675;-59
2021/07/01 01:12:30;;;;;;;1.90;1.80;;;12.40;99.90;;;;;;5027823;28;20168;-60
2021/07/01 01:14:56;;;;;;;1.73;1.63;;;12.40;99.90;;;;;;5022338;28;20462;-60
2021/07/01 01:17:22;;;;;;;1.67;1.57;;;12.30;99.90;;;;;;5027362;28;20207;-60
2021/07/01 01:19:47;;;;;;;5.57;2.17;;;12.30;99.90;;;;;;5024667;28;20191;-60
2021/07/01 01:22:13;;;;;;;1.70;1.60;;;12.30;99.90;;;;;;5028698;28;20397;-59
2021/07/01 01:24:38;;;;;;;2.90;1.70;;;12.30;99.90;;;;;;5013589;28;20680;-60
2021/07/01 01:27:04;;;;;;;1.90;1.80;;;12.30;99.90;;;;;;5024882;28;20589;-61
2021/07/01 01:29:30;;;;;;;1.70;1.60;;;12.30;99.90;;;;;;5030775;28;20638;-60
2021/07/01 01:31:58;;;;;;;1.80;1.60;;;12.30;99.90;;;;;;5032102;28;20624;-60
2021/07/01 01:34:23;;;;;;;1.87;1.70;;;12.40;99.90;;;;;;5028863;28;20588;-60
2021/07/01 01:36:49;;;;;;;10.27;2.50;;;12.30;99.90;;;;;;5031048;28;21024;-60
2021/07/01 01:39:19;;;;;;;2.40;1.80;;;12.30;99.90;;;;;;5023644;28;20254;-60
2021/07/01 01:41:44;;;;;;;2.80;2.10;;;12.30;99.90;;;;;;5031745;28;20168;-60
2021/07/01 01:44:10;;;;;;;2.10;1.90;;;12.40;99.90;;;;;;5020048;28;20429;-59
2021/07/01 01:46:37;;;;;;;2.57;1.93;;;12.40;99.90;;;;;;5018839;28;20656;-60
2021/07/01 01:49:04;;;;;;;3.50;1.70;;;12.30;99.90;;;;;;5022771;28;20168;-60
2021/07/01 01:51:29;;;;;;;2.63;1.93;;;12.30;99.90;;;;;;5027704;28;21013;-60
2021/07/01 01:53:55;;;;;;;3.80;2.03;;;12.30;99.90;;;;;;5026882;28;20446;-60
2021/07/01 01:56:21;;;;;;;3.90;2.40;;;12.30;99.90;;;;;;5023362;28;20171;-59
2021/07/01 01:58:47;;;;;;;3.73;2.70;;;12.30;99.90;;;;;;5025192;28;20168;-59
2021/07/01 02:01:13;;;;;;;2.83;2.53;;;12.30;99.90;;;;;;5025926;28;20194;-60
2021/07/01 02:03:38;;;;;;;2.80;2.27;;;12.30;99.90;;;;;;5028933;28;20415;-60
2021/07/01 02:06:04;;;;;;;3.43;2.07;;;12.30;99.90;;;;;;5024358;28;20186;-60
2021/07/01 02:08:32;;;;;;;3.03;2.47;;;12.20;99.90;;;;;;5031287;28;20258;-60
2021/07/01 02:10:58;;;;;;;2.37;2.17;;;12.20;99.90;;;;;;5021117;28;20197;-59
2021/07/01 02:13:23;;;;;;;8.70;2.33;;;12.20;99.90;;;;;;5029440;28;20430;-60
2021/07/01 02:15:49;;;;;;;2.70;2.20;;;12.20;99.90;;;;;;5030194;28;20702;-59
2021/07/01 02:18:14;;;;;;;3.97;2.60;;;12.20;99.90;;;;;;5028313;28;20808;-60
2021/07/01 02:20:40;;;;;;;5.33;2.53;;;12.20;99.90;;;;;;5021769;28;20551;-59
2021/07/01 02:23:06;;;;;;;4.27;2.67;;;12.10;99.90;;;;;;5011967;28;20172;-61
2021/07/01 02:25:32;;;;;;;3.47;2.73;;;12.20;99.90;;;;;;5025610;28;20183;-59
2021/07/01 02:27:58;;;;;;;2.90;2.40;;;12.20;99.90;;;;;;5022498;28;20176;-59
2021/07/01 02:30:24;;;;;;;2.67;2.47;;;12.20;99.90;;;;;;5014769;28;20466;-60
2021/07/01 02:32:49;;;;;;;3.20;2.90;;;12.20;99.90;;;;;;5012115;28;20164;-59
2021/07/01 02:35:15;;;;;;;3.07;2.77;;;12.20;99.90;;;;;;5027437;28;20191;-60
2021/07/01 02:37:42;;;;;;;3.10;2.80;;;12.10;99.90;;;;;;5024883;28;20534;-60
2021/07/01 02:40:15;;;;;;;6.40;2.40;;;12.20;99.90;;;;;;5027771;28;20794;-58
2021/07/01 02:42:42;;;;;;;2.87;2.60;;;12.10;99.90;;;;;;5031467;28;20498;-60
2021/07/01 02:45:10;;;;;;;2.70;2.33;;;12.10;99.90;;;;;;5025072;28;20462;-60
2021/07/01 02:47:36;;;;;;;2.67;2.20;;;12.10;99.90;;;;;;5031033;28;20411;-60
2021/07/01 02:50:04;;;;;;;2.40;2.20;;;12.10;99.90;;;;;;5028969;28;20458;-60
2021/07/01 02:52:30;;;;;;;5.03;2.20;;;12.10;99.90;;;;;;5030863;28;20461;-60
2021/07/01 02:54:55;;;;;;;2.90;2.70;;;12.10;99.90;;;;;;5018032;28;20489;-60
2021/07/01 02:57:21;;;;;;;6.33;2.60;;;12.10;99.90;;;;;;5029801;28;20168;-59
2021/07/01 02:59:46;;;;;;;2.20;2.00;;;12.10;99.90;;;;;;5029063;28;20184;-60
2021/07/01 03:02:12;;;;;;;4.40;3.00;;;12.10;99.90;;;;;;5028390;28;20175;-60
2021/07/01 03:04:38;;;;;;;4.50;2.60;;;12.10;99.90;;;;;;5016861;28;20190;-60
2021/07/01 03:07:04;;;;;;;3.00;2.43;;;12.10;99.90;;;;;;5029118;28;20668;-60
2021/07/01 03:09:30;;;;;;;4.30;2.90;;;12.10;99.90;;;;;;5030604;28;20687;-60
2021/07/01 03:11:55;;;;;;;2.93;2.70;;;12.10;99.90;;;;;;5029177;28;21040;-60
2021/07/01 03:14:21;;;;;;;2.93;2.63;;;12.10;99.90;;;;;;5014309;28;20180;-60
2021/07/01 03:16:47;;;;;;;4.87;2.90;;;12.10;99.90;;;;;;5030257;28;20175;-60
2021/07/01 03:19:12;;;;;;;6.43;3.00;;;12.10;99.90;;;;;;5026979;28;20164;-59
2021/07/01 03:21:38;;;;;;;2.80;2.50;;;12.10;99.90;;;;;;5017262;28;20172;-59
2021/07/01 03:24:04;;;;;;;7.50;2.50;;;12.10;99.90;;;;;;5019802;28;20175;-60
2021/07/01 03:26:29;;;;;;;3.10;2.63;;;12.10;99.90;;;;;;5025516;28;20218;-60
2021/07/01 03:28:55;;;;;;;3.83;2.80;;;12.10;99.90;;;;;;5025695;28;20176;-60
2021/07/01 03:31:21;;;;;;;4.70;3.20;;;12.10;99.90;;;;;;5020072;28;20202;-60
2021/07/01 03:33:46;;;;;;;3.17;2.87;;;12.10;99.90;;;;;;5028663;28;20349;-59
2021/07/01 03:36:12;;;;;;;3.17;2.87;;;12.10;99.90;;;;;;5029586;28;20190;-60
2021/07/01 03:38:38;;;;;;;5.70;3.00;;;12.10;99.90;;;;;;5025729;28;20217;-60
2021/07/01 03:41:04;;;;;;;3.80;2.60;;;12.10;99.90;;;;;;5028838;28;20449;-60
2021/07/01 03:43:31;;;;;;;3.70;3.03;;;12.10;99.90;;;;;;5026615;28;20172;-60
2021/07/01 03:45:57;;;;;;;5.87;2.47;;;12.10;99.90;;;;;;5028404;28;20446;-60
2021/07/01 03:48:22;;;;;;;3.70;2.60;;;12.10;99.90;;;;;;5025231;28;20431;-60
2021/07/01 03:50:48;;;;;;;7.60;3.13;;;12.10;99.90;;;;;;5022386;28;20578;-60
2021/07/01 03:53:14;;;;;;;3.10;2.80;;;12.10;99.90;;;;;;5027620;28;20182;-56
2021/07/01 03:55:39;;;;;;;3.20;2.70;;;12.10;99.90;;;;;;5021194;28;20551;-59
2021/07/01 03:58:05;;;;;;;3.10;2.80;;;12.10;99.90;;;;;;5021079;28;20176;-59
2021/07/01 04:00:32;;;;;;;3.80;3.13;;;12.10;99.90;;;;;;5018468;28;20568;-60
2021/07/01 04:03:01;;;;;;;4.17;3.37;;;12.10;99.90;;;;;;5025545;28;20167;-58
2021/07/01 04:05:26;;;;;;;4.53;3.00;;;12.10;99.90;;;;;;5018036;28;20434;-61
2021/07/01 04:07:52;;;;;;;4.37;3.33;;;12.10;99.90;;;;;;5012070;28;21147;-60
2021/07/01 04:10:19;;;;;;;6.03;2.93;;;12.10;99.90;;;;;;5016766;28;20576;-59
2021/07/01 04:12:45;;;;;;;3.00;2.70;;;12.10;99.90;;;;;;5016641;28;20183;-60
2021/07/01 04:15:11;;;;;;;3.00;2.70;;;12.10;99.90;;;;;;5017468;28;20466;-59
2021/07/01 04:17:37;;;;;;;4.10;3.00;;;12.10;99.90;;;;;;5024558;28;20513;-58
2021/07/01 04:20:05;;;;;;;3.50;2.90;;;12.20;99.90;;;;;;5022471;28;20541;-61
2021/07/01 04:22:31;;;;;;;2.60;2.40;;;12.20;99.90;;;;;;5019469;28;20434;-61
2021/07/01 04:24:57;;;;;;;3.07;2.47;;;12.20;99.90;;;;;;5017663;28;20441;-59
2021/07/01 04:27:22;;;;;;;4.93;2.80;;;12.20;99.90;;;;;;5020546;28;20179;-59
2021/07/01 04:29:48;;;;;;;3.00;2.70;;;12.30;99.90;;;;;;5018044;28;20583;-60
2021/07/01 04:32:14;;;;;;;2.90;2.60;;;12.30;99.90;;;;;;5018360;28;20183;-61
2021/07/01 04:34:40;;;;;;;2.93;2.60;;;12.20;99.90;;;;;;5015867;28;20208;-61
2021/07/01 04:37:05;;;;;;;5.90;3.20;;;12.30;99.90;;;;;;5014874;28;20434;-59
2021/07/01 04:39:32;;;;;;;3.17;2.87;;;12.30;99.90;;;;;;5020374;28;20203;-62
2021/07/01 04:41:58;;;;;;;3.27;2.97;;;12.30;99.90;;;;;;5016397;28;20374;-61
2021/07/01 04:44:24;;;;;;;4.03;3.20;;;12.30;99.90;;;;;;5018259;28;21024;-58
2021/07/01 04:46:50;;;;;;;3.77;3.00;;;12.30;99.90;;;;;;5015225;28;20426;-59
2021/07/01 04:49:16;;;;;;;5.30;3.10;;;12.30;99.90;;;;;;5014004;28;21142;-58
2021/07/01 04:51:42;;;;;;;3.70;3.10;;;12.30;99.90;;;;;;5014192;28;20203;-58
2021/07/01 04:54:08;;;;;;;3.60;2.73;;;12.30;99.90;;;;;;5013957;28;20188;-59
2021/07/01 04:56:43;;;;;;;3.53;2.90;;;12.40;99.90;;;;;;5012187;28;20970;-61
2021/07/01 04:59:13;;;;;;;4.57;3.40;;;12.40;99.90;;;;;;5019459;28;20418;-61
2021/07/01 05:01:39;;;;;;;4.80;3.80;;;12.40;99.90;;;;;;5015522;28;20425;-59
2021/07/01 05:04:10;;;;;;;4.23;3.43;;;12.40;99.90;;;;;;5023168;28;20849;-59
2021/07/01 05:06:38;;;;;;;4.50;3.43;;;12.40;99.90;;;;;;5024860;28;20470;-59
2021/07/01 05:09:05;;;;;;;4.77;3.53;;;12.50;99.90;;;;;;5025593;28;20509;-59
2021/07/01 05:11:30;;;;;;;5.60;4.30;;;12.50;99.90;;;;;;5022034;28;20450;-59
2021/07/01 05:13:57;;;;;;;5.40;3.43;;;12.50;99.90;;;;;;5032442;28;21001;-59
2021/07/01 05:16:23;;;;;;;6.40;4.10;;;12.50;99.90;;;;;;5031291;28;20160;-59
2021/07/01 05:18:49;;;;;;;4.60;3.80;;;12.50;99.90;;;;;;5027236;28;20442;-58
2021/07/01 05:21:14;;;;;;;7.60;4.10;;;12.50;99.90;;;;;;5027712;28;20505;-60
2021/07/01 05:23:40;;;;;;;7.20;4.60;;;12.60;99.90;;;;;;5029934;28;20255;-60
2021/07/01 05:26:06;;;;;;;5.97;3.80;;;12.60;99.90;;;;;;5027197;28;20290;-61
2021/07/01 05:28:31;;;;;;;13.03;6.80;;;12.60;99.90;;;;;;5024515;28;20716;-59
2021/07/01 05:30:57;;;;;;;12.60;6.20;;;12.60;99.90;;;;;;5030171;28;20234;-59
2021/07/01 05:33:23;;;;;;;7.77;5.03;;;12.60;99.90;;;;;;5031187;28;20321;-59
2021/07/01 05:35:49;;;;;;;9.80;4.70;;;12.70;99.90;;;;;;5031353;28;20556;-59
2021/07/01 05:38:14;;;;;;;6.43;4.00;;;12.70;99.90;;;;;;5018743;28;20185;-60
2021/07/01 05:40:40;;;;;;;10.53;5.10;;;12.70;99.90;;;;;;5023062;28;20569;-60
2021/07/01 05:43:07;;;;;;;6.23;4.13;;;12.70;99.90;;;;;;5032115;28;20191;-59
2021/07/01 05:45:33;;;;;;;10.47;4.90;;;12.70;99.90;;;;;;5031403;28;20188;-60
2021/07/01 05:47:58;;;;;;;7.67;4.07;;;12.80;99.90;;;;;;5028956;28;20437;-59
2021/07/01 05:50:24;;;;;;;5.53;4.43;;;12.80;99.90;;;;;;5032132;28;20312;-59
2021/07/01 05:52:55;;;;;;;7.10;4.83;;;12.80;99.90;;;;;;5031621;28;20172;-59
2021/07/01 05:55:21;;;;;;;5.60;4.13;;;12.90;99.90;;;;;;5030207;28;20237;-60
2021/07/01 05:57:46;;;;;;;6.10;4.50;;;12.90;99.90;;;;;;5029802;28;20430;-61
2021/07/01 06:00:14;;;;;;;8.07;4.37;;;12.90;99.90;;;;;;5032371;28;20199;-59
2021/07/01 06:02:39;;;;;;;6.47;4.67;;;13.00;99.90;;;;;;5033848;28;20192;-59
2021/07/01 06:05:06;;;;;;;5.57;4.20;;;13.00;99.90;;;;;;5035127;28;20437;-61
2021/07/01 06:07:32;;;;;;;4.53;4.07;;;13.10;99.90;;;;;;5031631;28;20176;-60
2021/07/01 06:10:02;;;;;;;9.30;3.80;;;13.10;99.90;;;;;;5023350;28;20485;-59
2021/07/01 06:12:32;;;;;;;5.43;3.97;;;13.10;99.90;;;;;;5026384;28;20453;-60
2021/07/01 06:14:59;;;;;;;5.27;3.80;;;13.20;99.90;;;;;;5028891;28;20995;-59
2021/07/01 06:17:30;;;;;;;6.27;4.17;;;13.20;99.90;;;;;;5028349;28;20419;-59
2021/07/01 06:19:56;;;;;;;5.80;3.40;;;13.30;99.90;;;;;;5029629;28;20534;-61
2021/07/01 06:22:22;;;;;;;5.00;4.27;;;13.30;99.90;;;;;;5028977;28;20521;-60
2021/07/01 06:24:56;;;;;;;4.67;4.00;;;13.30;99.90;;;;;;5030549;28;20430;-59
2021/07/01 06:27:35;;;;;;;5.57;3.80;;;13.30;99.90;;;;;;5026187;28;20422;-60
2021/07/01 06:30:13;;;;;;;4.73;3.57;;;13.40;99.90;;;;;;5026155;28;20458;-58
2021/07/01 06:32:45;;;;;;;4.90;3.40;;;13.40;99.90;;;;;;5032441;28;20398;-59
2021/07/01 06:35:19;;;;;;;4.63;3.20;;;13.40;99.90;;;;;;5030174;28;20488;-60
2021/07/01 06:37:46;;;;;;;4.00;3.30;;;13.40;99.90;;;;;;5027945;28;20431;-59
2021/07/01 06:40:13;;;;;;;4.63;3.13;;;13.40;99.90;;;;;;5030785;28;20446;-59
2021/07/01 06:42:54;;;;;;;4.23;3.40;;;13.30;99.90;;;;;;5029164;28;20430;-60
2021/07/01 06:45:21;;;;;;;4.30;3.00;;;13.30;99.90;;;;;;5023068;28;20422;-58
2021/07/01 06:47:50;;;;;;;4.70;3.23;;;13.30;99.90;;;;;;5025653;28;20426;-59
2021/07/01 06:50:18;;;;;;;3.83;3.40;;;13.30;99.90;;;;;;5023942;28;20500;-59
2021/07/01 06:52:45;;;;;;;4.90;3.00;;;13.30;99.90;;;;;;5027110;28;20449;-59
2021/07/01 06:55:15;;;;;;;2.97;2.73;;;13.40;99.90;;;;;;5028044;28;20450;-59
2021/07/01 06:57:42;;;;;;;4.13;3.17;;;13.40;99.90;;;;;;5025378;28;20426;-59
2021/07/01 07:00:10;;;;;;;3.03;2.73;;;13.50;99.90;;;;;;5027077;28;20446;-59
2021/07/01 07:02:36;;;;;;;3.43;3.10;;;13.50;99.90;;;;;;5030125;28;20426;-60
2021/07/01 07:05:07;;;;;;;4.47;3.37;;;13.60;99.90;;;;;;5020115;28;20460;-59
2021/07/01 07:07:33;;;;;;;6.20;4.90;;;13.70;99.90;;;;;;5026798;28;20207;-60
2021/07/01 07:10:03;;;;;;;5.53;5.03;;;13.80;99.90;;;;;;5029462;28;20521;-59
2021/07/01 07:12:29;;;;;;;6.00;5.10;;;13.80;99.90;;;;;;5029745;28;20484;-59
2021/07/01 07:14:55;;;;;;;5.00;4.20;;;13.90;99.90;;;;;;5026840;28;20516;-59
2021/07/01 07:17:27;;;;;;;3.43;3.13;;;14.10;99.90;;;;;;5030654;28;20423;-60
2021/07/01 07:19:56;;;;;;;5.37;3.50;;;14.20;99.90;;;;;;5030168;28;20454;-59
2021/07/01 07:22:23;;;;;;;3.03;2.73;;;14.20;99.90;;;;;;5026745;28;20428;-59
2021/07/01 07:24:53;;;;;;;3.67;3.07;;;14.30;99.90;;;;;;5027997;28;20783;-59
2021/07/01 07:27:26;;;;;;;3.30;2.87;;;14.30;99.90;;;;;;5026322;28;20473;-59
2021/07/01 07:29:52;;;;;;;4.40;3.73;;;14.30;99.90;;;;;;5026456;28;21094;-59
2021/07/01 07:32:22;;;;;;;3.90;2.97;;;14.20;99.90;;;;;;5023057;28;20422;-58
2021/07/01 07:34:50;;;;;;;3.63;2.93;;;14.20;99.90;;;;;;5020647;28;20239;-59
2021/07/01 07:37:17;;;;;;;3.47;3.17;;;14.20;99.90;;;;;;5019864;28;20488;-59
2021/07/01 07:39:46;;;;;;;4.67;3.00;;;14.20;99.90;;;;;;5029820;28;20426;-59
2021/07/01 07:42:13;;;;;;;3.90;3.50;;;14.30;99.90;;;;;;5015681;28;20442;-58
2021/07/01 07:44:40;;;;;;;5.17;3.40;;;14.30;99.90;;;;;;5027359;28;20437;-59
2021/07/01 07:47:12;;;;;;;7.43;3.73;;;14.40;99.90;;;;;;5028249;28;20430;-58
2021/07/01 07:49:39;;;;;;;6.10;3.73;;;14.50;99.90;;;;;;5017283;28;20453;-60
2021/07/01 07:52:09;;;;;;;4.87;3.30;;;14.50;99.90;;;;;;5024570;28;20437;-59
2021/07/01 07:54:45;;;;;;;17.73;3.53;;;14.50;99.90;;;;;;5030103;28;20445;-59
2021/07/01 07:57:12;;;;;;;10.73;4.00;;;14.40;99.90;;;;;;5020599;28;20883;-59
2021/07/01 07:59:40;;;;;;;11.53;4.23;;;14.30;99.90;;;;;;5025407;28;20478;-58
2021/07/01 08:02:21;;;;;;;6.97;3.43;;;14.30;99.90;;;;;;5021084;28;20442;-60
2021/07/01 08:04:49;;;;;;;6.33;3.63;;;14.20;99.90;;;;;;5021914;28;20874;-60
2021/07/01 08:07:15;;;;;;;4.20;3.20;;;14.10;99.90;;;;;;5024995;28;20446;-60
2021/07/01 08:09:41;;;;;;;7.70;3.57;;;14.10;99.90;;;;;;5028409;28;20529;-60
2021/07/01 08:12:08;;;;;;;5.40;3.60;;;14.00;99.90;;;;;;5029773;28;20539;-60
2021/07/01 08:14:41;;;;;;;4.43;3.47;;;14.00;99.90;;;;;;5024477;28;20200;-60
2021/07/01 08:17:07;;;;;;;5.63;3.90;;;13.90;99.90;;;;;;5026339;28;20446;-60
2021/07/01 08:19:35;;;;;;;5.73;3.70;;;13.90;99.90;;;;;;5028689;28;20520;-60
2021/07/01 08:22:01;;;;;;;7.47;3.83;;;13.90;99.90;;;;;;5022728;28;20982;-60
2021/07/01 08:24:28;;;;;;;5.50;4.00;;;13.90;99.90;;;;;;5026228;28;20492;-61
2021/07/01 08:26:54;;;;;;;8.80;4.40;;;13.90;99.90;;;;;;5028105;28;21048;-60
2021/07/01 08:29:21;;;;;;;10.20;4.50;;;13.80;99.90;;;;;;5020721;28;20942;-60
2021/07/01 08:31:48;;;;;;;5.83;4.00;;;13.90;99.90;;;;;;5024451;28;20167;-60
2021/07/01 08:34:15;;;;;;;6.90;4.27;;;13.90;99.90;;;;;;5025670;28;20465;-60
2021/07/01 08:36:45;;;;;;;4.87;4.10;;;13.90;99.90;;;;;;5026988;28;20427;-60
2021/07/01 08:39:11;;;;;;;4.70;3.73;;;13.90;99.90;;;;;;5025355;28;21054;-61
2021/07/01 08:41:42;;;;;;;14.20;4.23;;;13.90;99.90;;;;;;5024458;28;20534;-60
2021/07/01 08:44:14;;;;;;;5.37;4.23;;;13.90;99.90;;;;;;5029158;28;20187;-60
2021/07/01 08:46:49;;;;;;;4.73;3.53;;;14.00;99.90;;;;;;5024391;28;20815;-61
2021/07/01 08:49:31;;;;;;;5.20;4.13;;;14.00;99.90;;;;;;5019114;28;21093;-60
2021/07/01 08:52:00;;;;;;;4.00;3.60;;;14.10;99.90;;;;;;5022274;28;20436;-60
2021/07/01 08:54:34;;;;;;;10.43;4.40;;;14.10;99.90;;;;;;5021575;28;20466;-61
2021/07/01 08:57:01;;;;;;;6.23;3.40;;;14.20;99.90;;;;;;5025955;28;20422;-61
2021/07/01 08:59:41;;;;;;;6.33;3.23;;;14.20;99.90;;;;;;5024878;28;20427;-60
2021/07/01 09:02:09;;;;;;;3.00;2.67;;;14.20;99.90;;;;;;5022872;28;20769;-60
2021/07/01 09:04:56;;;;;;;4.00;3.10;;;14.30;99.90;;;;;;5029675;28;20448;-60
2021/07/01 09:07:25;;;;;;;3.30;3.00;;;14.40;99.90;;;;;;5026496;28;20510;-60
2021/07/01 09:10:00;;;;;;;6.70;3.40;;;14.50;99.90;;;;;;5022139;28;20450;-60
2021/07/01 09:12:28;;;;;;;3.23;2.90;;;14.60;99.90;;;;;;5024711;28;21057;-60
2021/07/01 09:15:04;;;;;;;3.83;3.43;;;14.70;99.90;;;;;;5015822;28;21028;-60
2021/07/01 09:17:32;;;;;;;4.73;3.30;;;15.00;99.90;;;;;;5025664;28;20954;-61
2021/07/01 09:20:00;;;;;;;4.00;3.60;;;15.10;99.90;;;;;;5015079;28;20455;-60
2021/07/01 09:22:28;;;;;;;7.10;3.33;;;15.30;99.90;;;;;;5025608;28;20434;-59
2021/07/01 09:24:55;;;;;;;7.10;3.30;;;15.50;99.90;;;;;;5021854;28;20447;-59
2021/07/01 09:27:21;;;;;;;7.23;2.80;;;15.70;99.90;;;;;;5018012;28;20446;-61
2021/07/01 09:29:49;;;;;;;4.40;3.53;;;15.90;99.90;;;;;;5020350;28;20453;-60
2021/07/01 09:32:18;;;;;;;4.53;3.50;;;16.10;99.90;;;;;;5028286;28;20828;-60
2021/07/01 09:34:46;;;;;;;3.80;3.37;;;16.30;99.10;;;;;;5025227;28;20447;-60
2021/07/01 09:37:12;;;;;;;5.20;3.30;;;16.40;99.50;;;;;;5020728;28;20427;-60
2021/07/01 09:39:39;;;;;;;6.80;3.60;;;16.50;99.50;;;;;;5022755;28;20455;-60
2021/07/01 09:42:06;;;;;;;3.80;3.27;;;16.50;98.30;;;;;;5028945;28;20422;-61
2021/07/01 09:44:35;;;;;;;3.27;2.60;;;16.30;96.00;;;;;;5021442;28;20439;-60
2021/07/01 09:47:08;;;;;;;3.70;3.30;;;16.20;97.40;;;;;;5022302;28;20431;-59
2021/07/01 09:49:35;;;;;;;3.73;2.93;;;16.10;98.00;;;;;;5023871;28;20450;-60
2021/07/01 09:52:07;;;;;;;3.33;2.93;;;16.00;98.00;;;;;;5027146;28;20802;-60
2021/07/01 09:54:34;;;;;;;4.40;3.33;;;15.80;98.10;;;;;;5025819;28;20454;-60
2021/07/01 09:57:16;;;;;;;3.37;3.07;;;15.80;98.80;;;;;;5028715;28;20430;-61
2021/07/01 09:59:52;;;;;;;4.07;3.30;;;15.80;98.20;;;;;;5028162;28;20457;-59
2021/07/01 10:02:20;;;;;;;5.40;3.50;;;15.60;98.30;;;;;;5022794;28;20442;-60
2021/07/01 10:04:46;;;;;;;4.07;3.17;;;15.60;98.70;;;;;;5028493;28;20941;-60
2021/07/01 10:07:13;;;;;;;3.80;3.40;;;15.60;98.90;;;;;;5032198;28;20427;-59
2021/07/01 10:09:39;;;;;;;2.80;2.43;;;15.50;99.00;;;;;;5029972;28;20468;-60
2021/07/01 10:12:17;;;;;;;4.47;3.80;;;15.60;99.70;;;;;;5028173;28;20442;-60
2021/07/01 10:14:43;;;;;;;12.03;4.73;;;15.60;99.70;;;;;;5030124;28;20282;-60
2021/07/01 10:17:14;;;;;;;4.40;3.30;;;15.60;98.30;;;;;;5027803;28;20644;-59
2021/07/01 10:19:41;;;;;;;3.50;2.90;;;15.60;98.60;;;;;;5026729;28;20679;-60
2021/07/01 10:22:09;;;;;;;4.00;3.60;;;15.60;98.90;;;;;;5027024;28;20434;-59
2021/07/01 10:24:53;;;;;;;3.20;2.83;;;15.60;98.40;;;;;;5022928;28;20445;-59
2021/07/01 10:27:29;;;;;;;3.20;2.87;;;15.70;98.10;;;;;;5028526;28;20431;-60
2021/07/01 10:30:00;;;;;;;3.90;3.40;;;15.90;97.20;;;;;;5027586;28;20797;-59
2021/07/01 10:32:38;;;;;;;3.90;2.93;;;15.90;97.70;;;;;;5027697;28;20439;-60
2021/07/01 10:35:16;;;;;;;3.40;3.07;;;16.00;98.10;;;;;;5025609;28;20835;-59
2021/07/01 10:38:03;;;;;;;3.70;3.00;;;16.00;97.20;;;;;;5026660;28;20521;-60
2021/07/01 10:40:30;;;;;;;3.50;3.20;;;16.00;97.00;;;;;;5022638;28;21020;-59
2021/07/01 10:42:56;;;;;;;3.17;2.87;;;16.00;97.60;;;;;;5025532;28;20489;-59
2021/07/01 10:45:23;;;;;;;3.00;2.70;;;16.00;96.60;;;;;;5026878;28;21298;-59
2021/07/01 10:47:49;;;;;;;3.10;2.80;;;16.00;96.80;;;;;;5028510;28;20556;-60
2021/07/01 10:50:21;;;;;;;4.97;2.77;;;16.10;97.30;;;;;;5027372;28;20979;-60
2021/07/01 10:52:48;;;;;;;3.13;2.83;;;16.20;97.70;;;;;;5027387;28;20565;-58
2021/07/01 10:55:15;;;;;;;3.40;3.10;;;16.30;98.00;;;;;;5028101;28;20876;-58
2021/07/01 10:58:01;;;;;;;3.23;2.80;;;16.40;97.60;;;;;;5030983;28;20452;-62
2021/07/01 11:00:43;;;;;;;3.10;2.80;;;16.40;96.60;;;;;;5025832;28;20513;-59
2021/07/01 11:03:12;;;;;;;2.80;2.60;;;16.50;96.30;;;;;;5025702;28;20431;-58
2021/07/01 11:05:38;;;;;;;3.33;3.03;;;16.50;96.00;;;;;;5024081;28;20437;-59
2021/07/01 11:08:04;;;;;;;5.97;2.93;;;16.60;96.40;;;;;;5024125;28;20442;-59
2021/07/01 11:10:38;;;;;;;3.80;2.73;;;16.70;96.10;;;;;;5027769;28;20509;-58
2021/07/01 11:13:10;;;;;;;3.43;3.00;;;16.90;94.40;;;;;;5033015;28;20450;-59
2021/07/01 11:16:00;;;;;;;4.23;3.20;;;17.00;94.50;;;;;;5023379;28;20458;-58
2021/07/01 11:18:55;;;;;;;3.67;3.30;;;17.20;93.50;;;;;;5012880;28;20434;-58
2021/07/01 11:21:21;;;;;;;5.07;3.00;;;17.30;91.80;;;;;;5012269;28;20490;-58
2021/07/01 11:23:51;;;;;;;4.33;2.67;;;17.30;89.10;;;;;;5018190;28;20446;-58
2021/07/01 11:26:33;;;;;;;3.60;3.30;;;17.10;88.30;;;;;;5022989;28;20457;-58
2021/07/01 11:29:06;;;;;;;3.20;2.90;;;17.00;92.30;;;;;;5025051;28;20437;-60
2021/07/01 11:31:44;;;;;;;4.57;3.23;;;16.90;93.70;;;;;;5030225;28;20478;-59
2021/07/01 11:34:13;;;;;;;2.90;2.70;;;16.80;94.40;;;;;;5025459;28;20549;-60
2021/07/01 11:36:39;;;;;;;4.87;3.27;;;16.60;94.30;;;;;;5027369;28;20513;-58
2021/07/01 11:39:13;;;;;;;3.00;2.67;;;16.50;93.20;;;;;;5027927;28;20438;-59
2021/07/01 11:41:42;;;;;;;6.93;2.73;;;16.40;94.00;;;;;;5027783;28;20496;-56
2021/07/01 11:44:10;;;;;;;5.20;3.30;;;16.30;94.90;;;;;;5026806;28;20469;-59
2021/07/01 11:46:36;;;;;;;4.37;2.83;;;16.40;95.00;;;;;;5026895;28;20434;-58
2021/07/01 11:49:06;;;;;;;4.07;3.13;;;16.30;94.00;;;;;;5031799;28;20530;-59
2021/07/01 11:51:32;;;;;;;3.30;3.00;;;16.30;94.20;;;;;;5026864;28;20450;-59
2021/07/01 11:53:59;;;;;;;3.60;2.80;;;16.40;94.30;;;;;;5027132;28;20435;-58
2021/07/01 11:56:25;;;;;;;3.20;2.80;;;16.50;95.20;;;;;;5025135;28;20433;-59
2021/07/01 11:58:51;;;;;;;3.37;2.90;;;16.70;95.10;;;;;;5021745;28;20541;-59
2021/07/01 12:01:20;;;;;;;5.40;3.27;;;17.00;95.60;;;;;;5027197;28;20480;-60
2021/07/01 12:03:51;;;;;;;3.13;2.50;;;17.30;93.50;;;;;;5025340;28;20912;-60
2021/07/01 12:06:37;;;;;;;5.83;3.00;;;17.50;92.40;;;;;;5025071;28;20430;-59
2021/07/01 12:09:03;;;;;;;7.47;3.13;;;17.50;90.50;;;;;;5026951;28;20434;-60
2021/07/01 12:11:29;;;;;;;3.70;3.10;;;17.30;89.50;;;;;;5028215;28;20458;-60
2021/07/01 12:13:54;;;;;;;5.43;3.30;;;17.20;91.90;;;;;;5023752;28;20857;-60
2021/07/01 12:16:20;;;;;;;5.33;3.67;;;17.10;91.40;;;;;;5028071;28;20182;-60
2021/07/01 12:18:49;;;;;;;5.00;3.43;;;17.00;90.40;;;;;;5027453;28;20234;-60
2021/07/01 12:21:20;;;;;;;4.77;3.70;;;16.90;90.60;;;;;;5023759;28;20196;-60
2021/07/01 12:24:07;;;;;;;5.47;3.80;;;16.90;91.40;;;;;;5024675;28;20430;-60
2021/07/01 12:26:36;;;;;;;4.10;3.30;;;17.00;91.00;;;;;;5027577;28;20468;-60
2021/07/01 12:29:08;;;;;;;6.77;3.67;;;17.00;89.90;;;;;;5028761;28;20573;-60
2021/07/01 12:31:35;;;;;;;10.17;4.53;;;17.10;90.30;;;;;;5017839;28;21322;-60
2021/07/01 12:34:30;;;;;;;6.87;3.90;;;17.20;89.40;;;;;;5031253;28;20427;-61
2021/07/01 12:37:05;;;;;;;7.30;4.33;;;17.20;87.60;;;;;;5010609;28;20435;-60
2021/07/01 12:39:38;;;;;;;6.30;4.20;;;17.30;88.00;;;;;;5032284;28;20450;-61
2021/07/01 12:42:04;;;;;;;4.30;3.80;;;17.30;87.20;;;;;;5042304;28;20450;-60
2021/07/01 12:44:35;;;;;;;4.67;3.80;;;17.40;89.60;;;;;;5050092;28;20592;-59
2021/07/01 12:47:04;;;;;;;4.73;4.00;;;17.50;90.30;;;;;;5041303;28;20180;-60
2021/07/01 12:49:33;;;;;;;6.40;3.93;;;17.60;91.00;;;;;;5047359;28;20469;-60
2021/07/01 12:52:02;;;;;;;5.30;3.87;;;17.80;92.10;;;;;;5026012;28;20853;-60